Ana Sayfa
METAR-TAF:

METAR-TAF

Havaalanları :

Ambon, Endonezya

Enlem: 03-42S, Boylam: 128-05E, yükseklik: 12 m

Güncel hava durumu gözlemi

Rapor saat 08:00 UTC de 24 dakika önce yapıldı.
Rüzgar güney/güneydoğudan 8 kt
Sıcaklık 29°C
Nem 70%
Basınç 1006 hPa
Görüş mesafesi 10 km veya daha fazla
1800 ft yükseklikte parçalı bulutlu

METAR: WAPP 220800Z 16008KT 9999 SCT018 29/23 Q1006 NOSIG

Saat: 17:24 (08:24 UTC)

Tahmin

Rapor saat 05:00 UTC de 3 saat ve 24 dakika önce yapıldı.
Ayın 22'si saat 06 UTC'den ayın 23'si saat 06 UTC'ye kadar geçerli Tahmin
Rüzgar güney/güneydoğudan 8 kt
Görüş mesafesi 10 km veya daha fazla
1800 ft yükseklikte parçalı bulutlu

TAF: WAPP 220500Z 2206/2306 16008KT 9999 SCT018

4.000'den fazla havaalanı için hava durumu gözlemleri ve tahminleri (METAR ve TAF raporları).

Kullanılabilir istasyonlar harita üzerinde sarı ve kırmızı noktalarla gösterilir.

İstasyonun adını görmek için fareyi noktanın üzerinde gezdirin.

Sonrasında hava gözlem ve tahminlerini görmek için tıklayın.

Haritayı değiştirmek için: yaklaştırmak için siyah artı işaretli yeşil düğmeye ve uzaklaştırmak için de eksi işaretli düğmeye hızla tıklayın; bitişik haritalar için yeşil okları kullanın.


METAR-TAF: